Time;durP1;ratioP1;P1;durP2;ratioP2;P2;SDS_P1;SDS_P2;PMS_P1;PMS_P2;Temp;Humidity;BMP_temperature;BMP_pressure;BME280_temperature;BME280_humidity;BME280_pressure;Samples;Min_cycle;Max_cycle;Signal;HPM_P1;HPM_P2
2021/08/01 00:01:55;;;;;;;1.83;1.73;;;21.80;62.80;;;;;;5114141;28;20177;-66
2021/08/01 00:04:20;;;;;;;3.72;2.00;;;21.80;62.80;;;;;;5113027;28;20185;-65
2021/08/01 00:06:46;;;;;;;2.80;1.80;;;21.80;62.80;;;;;;5114277;28;20173;-65
2021/08/01 00:09:11;;;;;;;1.75;1.65;;;21.80;62.70;;;;;;5114098;28;20177;-64
2021/08/01 00:11:37;;;;;;;3.75;2.08;;;21.80;62.80;;;;;;5112707;28;20530;-66
2021/08/01 00:14:02;;;;;;;2.15;1.90;;;21.80;62.80;;;;;;5113909;28;20252;-64
2021/08/01 00:16:28;;;;;;;1.75;1.65;;;21.80;62.80;;;;;;5113613;28;20623;-64
2021/08/01 00:18:56;;;;;;;2.33;1.75;;;21.80;62.80;;;;;;5112874;28;20229;-65
2021/08/01 00:21:21;;;;;;;1.83;1.60;;;21.80;62.80;;;;;;5113650;28;20180;-66
2021/08/01 00:23:47;;;;;;;3.33;1.70;;;21.80;62.80;;;;;;5113890;28;20168;-65
2021/08/01 00:26:15;;;;;;;2.42;1.90;;;21.80;62.80;;;;;;5113130;28;20181;-66
2021/08/01 00:28:41;;;;;;;1.67;1.58;;;21.80;62.80;;;;;;5113754;28;20358;-65
2021/08/01 00:31:06;;;;;;;1.77;1.67;;;21.80;62.80;;;;;;5112982;28;20298;-66
2021/08/01 00:33:32;;;;;;;2.30;2.10;;;21.80;62.90;;;;;;5113569;28;20173;-66
2021/08/01 00:35:57;;;;;;;2.30;2.10;;;21.70;62.70;;;;;;5113529;28;20177;-66
2021/08/01 00:38:23;;;;;;;1.98;1.88;;;21.80;62.80;;;;;;5112651;28;21002;-65
2021/08/01 00:40:48;;;;;;;2.17;1.83;;;21.70;62.80;;;;;;5113417;28;20217;-65
2021/08/01 00:43:14;;;;;;;1.70;1.60;;;21.80;62.80;;;;;;5113366;28;20188;-65
2021/08/01 00:45:40;;;;;;;2.95;2.20;;;21.80;62.90;;;;;;5112399;28;20177;-66
2021/08/01 00:48:08;;;;;;;2.25;1.98;;;21.70;62.80;;;;;;5095231;28;20181;-66
2021/08/01 00:50:34;;;;;;;2.30;1.88;;;21.70;62.80;;;;;;5112804;28;20638;-65
2021/08/01 00:53:00;;;;;;;1.90;1.80;;;21.70;62.80;;;;;;5112590;28;20165;-64
2021/08/01 00:55:25;;;;;;;2.95;2.00;;;21.70;62.80;;;;;;5094379;28;20208;-64
2021/08/01 00:57:51;;;;;;;1.60;1.50;;;21.70;62.80;;;;;;5113138;28;20696;-64
2021/08/01 01:00:27;;;;;;;1.58;1.48;;;21.70;62.80;;;;;;5111835;28;20201;-64
2021/08/01 01:02:52;;;;;;;2.38;1.75;;;21.70;62.80;;;;;;5113140;28;20268;-65
2021/08/01 01:05:26;;;;;;;1.83;1.70;;;21.70;62.80;;;;;;5077689;28;20253;-64
2021/08/01 01:07:56;;;;;;;1.77;1.60;;;21.70;62.80;;;;;;5093896;28;20173;-65
2021/08/01 01:10:27;;;;;;;1.70;1.60;;;21.70;62.80;;;;;;5112593;28;20602;-64
2021/08/01 01:12:54;;;;;;;2.25;1.65;;;21.70;62.80;;;;;;5094310;28;20195;-64
2021/08/01 01:15:23;;;;;;;3.50;1.70;;;21.60;62.80;;;;;;5077024;28;20169;-64
2021/08/01 01:17:53;;;;;;;2.10;1.83;;;21.60;62.80;;;;;;5094730;28;20198;-64
2021/08/01 01:20:27;;;;;;;1.70;1.60;;;21.60;62.80;;;;;;5094042;28;20212;-65
2021/08/01 01:23:13;;;;;;;1.77;1.67;;;21.60;62.80;;;;;;5112748;28;20287;-65
2021/08/01 01:25:58;;;;;;;2.00;1.80;;;21.60;62.80;;;;;;5095218;28;20657;-65
2021/08/01 01:28:43;;;;;;;1.88;1.77;;;21.60;62.80;;;;;;5111555;28;20326;-65
2021/08/01 01:31:41;;;;;;;2.00;1.90;;;21.60;62.80;;;;;;5097310;28;20169;-66
2021/08/01 01:34:22;;;;;;;2.00;1.67;;;21.60;62.80;;;;;;5096190;28;20185;-65
2021/08/01 01:36:47;;;;;;;2.33;2.00;;;21.60;62.80;;;;;;5094055;28;20232;-65
2021/08/01 01:39:13;;;;;;;2.10;1.92;;;21.60;62.80;;;;;;5077084;28;20689;-65
2021/08/01 01:41:40;;;;;;;3.50;1.73;;;21.60;62.80;;;;;;5093101;28;20181;-66
2021/08/01 01:44:06;;;;;;;2.10;2.00;;;21.60;62.80;;;;;;5094180;28;20181;-66
2021/08/01 01:46:32;;;;;;;2.63;2.10;;;21.60;62.90;;;;;;5112438;28;20301;-68
2021/08/01 01:48:57;;;;;;;1.67;1.58;;;21.60;62.80;;;;;;5076386;28;20169;-66
2021/08/01 01:51:23;;;;;;;2.05;1.85;;;21.60;62.80;;;;;;5094087;28;20528;-66
2021/08/01 01:53:48;;;;;;;1.80;1.70;;;21.60;62.80;;;;;;5093695;28;20607;-66
2021/08/01 01:56:14;;;;;;;2.00;1.70;;;21.50;62.80;;;;;;5093068;28;20580;-66
2021/08/01 01:58:40;;;;;;;2.97;1.70;;;21.60;62.80;;;;;;5093377;28;20182;-67
2021/08/01 02:01:05;;;;;;;2.70;1.77;;;21.60;62.80;;;;;;5094011;28;20209;-65
2021/08/01 02:03:31;;;;;;;3.15;1.85;;;21.50;62.80;;;;;;5111167;28;20578;-66
2021/08/01 02:05:57;;;;;;;1.67;1.45;;;21.60;62.80;;;;;;5112017;28;20268;-67
2021/08/01 02:08:22;;;;;;;1.80;1.65;;;21.50;62.90;;;;;;5111532;28;20248;-64
2021/08/01 02:10:55;;;;;;;1.88;1.77;;;21.50;62.80;;;;;;5111255;28;20330;-64
2021/08/01 02:13:30;;;;;;;1.90;1.80;;;21.50;62.80;;;;;;5076476;28;20185;-64
2021/08/01 02:15:56;;;;;;;3.03;1.50;;;21.50;62.80;;;;;;5112036;28;20182;-64
2021/08/01 02:18:24;;;;;;;1.98;1.65;;;21.50;62.80;;;;;;5075591;28;20220;-63
2021/08/01 02:20:50;;;;;;;1.85;1.63;;;21.50;62.80;;;;;;5093423;28;20262;-63
2021/08/01 02:23:40;;;;;;;3.55;2.30;;;21.50;62.80;;;;;;5093183;28;20250;-63
2021/08/01 02:26:05;;;;;;;1.65;1.55;;;21.50;62.80;;;;;;5083305;28;20263;-64
2021/08/01 02:28:31;;;;;;;3.25;2.15;;;21.50;62.80;;;;;;5093209;28;20307;-64
2021/08/01 02:30:56;;;;;;;3.03;1.80;;;21.50;62.90;;;;;;5092739;28;20177;-64
2021/08/01 02:33:28;;;;;;;1.70;1.60;;;21.50;62.80;;;;;;5076064;28;20176;-65
2021/08/01 02:35:59;;;;;;;3.15;1.60;;;21.50;62.80;;;;;;5079952;28;20225;-64
2021/08/01 02:38:25;;;;;;;2.25;1.60;;;21.50;62.80;;;;;;5080050;28;20181;-63
2021/08/01 02:40:51;;;;;;;1.90;1.70;;;21.50;62.90;;;;;;5080357;28;20218;-63
2021/08/01 02:43:17;;;;;;;1.80;1.70;;;21.50;62.80;;;;;;5097466;28;20187;-65
2021/08/01 02:45:42;;;;;;;1.73;1.63;;;21.40;62.80;;;;;;5096667;28;20180;-64
2021/08/01 02:48:10;;;;;;;2.10;1.90;;;21.50;62.90;;;;;;5097257;28;20183;-65
2021/08/01 02:50:35;;;;;;;2.40;1.75;;;21.40;62.80;;;;;;5115218;28;20173;-63
2021/08/01 02:53:02;;;;;;;1.73;1.63;;;21.50;62.90;;;;;;5096569;28;20463;-66
2021/08/01 02:55:29;;;;;;;2.60;1.70;;;21.40;62.80;;;;;;5115373;28;20177;-63
2021/08/01 02:57:54;;;;;;;2.63;1.90;;;21.40;62.80;;;;;;5097184;28;20173;-64
2021/08/01 03:00:20;;;;;;;2.20;1.70;;;21.40;62.80;;;;;;5114370;28;20220;-63
2021/08/01 03:02:48;;;;;;;2.42;1.80;;;21.40;62.80;;;;;;5097138;28;20516;-64
2021/08/01 03:05:14;;;;;;;1.70;1.60;;;21.40;62.90;;;;;;5080174;28;20207;-66
2021/08/01 03:07:40;;;;;;;3.20;1.90;;;21.40;62.90;;;;;;5079257;28;20165;-66
2021/08/01 03:10:05;;;;;;;1.80;1.70;;;21.40;62.80;;;;;;5097215;28;20626;-66
2021/08/01 03:12:31;;;;;;;1.52;1.42;;;21.40;62.80;;;;;;5115278;28;20169;-65
2021/08/01 03:14:56;;;;;;;2.03;1.52;;;21.40;62.80;;;;;;5114592;28;20180;-65
2021/08/01 03:17:22;;;;;;;1.80;1.70;;;21.40;62.80;;;;;;5114952;28;20171;-65
2021/08/01 03:19:47;;;;;;;1.52;1.42;;;21.40;62.80;;;;;;5114880;28;20217;-64
2021/08/01 03:22:13;;;;;;;2.08;1.60;;;21.40;62.90;;;;;;5114196;28;20177;-65
2021/08/01 03:24:38;;;;;;;1.52;1.42;;;21.40;62.90;;;;;;5114926;28;20243;-65
2021/08/01 03:27:04;;;;;;;1.38;1.30;;;21.40;62.90;;;;;;5114463;28;20509;-65
2021/08/01 03:29:30;;;;;;;4.60;2.13;;;21.40;62.80;;;;;;5114695;28;20173;-65
2021/08/01 03:31:55;;;;;;;1.83;1.60;;;21.40;62.90;;;;;;5114891;28;20169;-66
2021/08/01 03:34:21;;;;;;;2.08;1.85;;;21.40;62.90;;;;;;5113783;28;20181;-66
2021/08/01 03:36:48;;;;;;;2.15;1.80;;;21.40;62.90;;;;;;5115012;28;20168;-65
2021/08/01 03:39:13;;;;;;;1.70;1.60;;;21.40;62.90;;;;;;5114682;28;20213;-64
2021/08/01 03:41:39;;;;;;;1.65;1.55;;;21.40;62.90;;;;;;5113846;28;20173;-64
2021/08/01 03:44:05;;;;;;;2.67;1.58;;;21.40;62.90;;;;;;5114759;28;20173;-64
2021/08/01 03:46:30;;;;;;;1.90;1.75;;;21.40;62.90;;;;;;5113658;28;20560;-63
2021/08/01 03:48:56;;;;;;;1.40;1.30;;;21.40;62.90;;;;;;5113464;28;20166;-63
2021/08/01 03:51:21;;;;;;;1.80;1.70;;;21.40;62.90;;;;;;5114111;28;20480;-63
2021/08/01 03:53:47;;;;;;;2.10;1.60;;;21.30;62.80;;;;;;5114638;28;20592;-64
2021/08/01 03:56:12;;;;;;;2.65;1.98;;;21.30;62.80;;;;;;5113908;28;20176;-64
2021/08/01 03:58:38;;;;;;;1.70;1.60;;;21.40;62.90;;;;;;5113760;28;20508;-64
2021/08/01 04:01:03;;;;;;;2.85;1.48;;;21.30;62.80;;;;;;5114191;28;20181;-65
2021/08/01 04:03:29;;;;;;;1.80;1.70;;;21.30;62.90;;;;;;5113202;28;20173;-65
2021/08/01 04:05:54;;;;;;;2.60;1.77;;;21.30;62.80;;;;;;5113933;28;20199;-65
2021/08/01 04:08:20;;;;;;;1.25;1.25;;;21.40;63.00;;;;;;5113869;28;20173;-65
2021/08/01 04:10:45;;;;;;;1.45;1.35;;;21.30;62.80;;;;;;5113511;28;20203;-64
2021/08/01 04:13:11;;;;;;;2.13;1.70;;;21.30;62.80;;;;;;5113972;28;20528;-69
2021/08/01 04:15:36;;;;;;;1.58;1.48;;;21.30;62.80;;;;;;5113907;28;20201;-65
2021/08/01 04:18:03;;;;;;;1.60;1.50;;;21.30;62.90;;;;;;5113154;28;20165;-65
2021/08/01 04:20:29;;;;;;;1.67;1.58;;;21.30;62.80;;;;;;5113575;28;20630;-63
2021/08/01 04:22:54;;;;;;;2.17;1.98;;;21.30;62.80;;;;;;5114106;28;20265;-63
2021/08/01 04:25:20;;;;;;;1.80;1.70;;;21.30;62.80;;;;;;5113164;28;20256;-64
2021/08/01 04:27:46;;;;;;;1.67;1.58;;;21.30;62.80;;;;;;5113956;28;20691;-64
2021/08/01 04:30:11;;;;;;;1.70;1.60;;;21.30;62.90;;;;;;5113541;28;20177;-64
2021/08/01 04:32:37;;;;;;;1.60;1.50;;;21.30;63.80;;;;;;5113149;28;20605;-64
2021/08/01 04:35:03;;;;;;;1.65;1.55;;;21.30;62.80;;;;;;5113630;28;20670;-64
2021/08/01 04:37:29;;;;;;;1.88;1.77;;;21.30;62.90;;;;;;5112763;28;20177;-64
2021/08/01 04:39:54;;;;;;;1.50;1.40;;;21.30;62.80;;;;;;5113285;28;20220;-64
2021/08/01 04:42:20;;;;;;;1.52;1.42;;;21.30;62.80;;;;;;5113412;28;20256;-64
2021/08/01 04:44:46;;;;;;;1.63;1.52;;;21.30;62.90;;;;;;5112945;28;20670;-63
2021/08/01 04:47:13;;;;;;;1.50;1.40;;;21.30;62.90;;;;;;5113390;28;20241;-63
2021/08/01 04:49:39;;;;;;;1.48;1.45;;;21.30;62.90;;;;;;5113088;28;20197;-63
2021/08/01 04:52:05;;;;;;;1.50;1.40;;;21.30;62.90;;;;;;5113012;28;20265;-63
2021/08/01 04:54:30;;;;;;;1.60;1.50;;;21.30;62.90;;;;;;5113157;28;20276;-64
2021/08/01 04:56:55;;;;;;;2.53;1.52;;;21.30;62.90;;;;;;5113220;28;20179;-64
2021/08/01 04:59:21;;;;;;;1.63;1.52;;;21.30;62.80;;;;;;5111058;28;20666;-64
2021/08/01 05:01:46;;;;;;;1.75;1.60;;;21.30;62.90;;;;;;5113010;28;20173;-64
2021/08/01 05:04:13;;;;;;;1.55;1.45;;;21.30;62.90;;;;;;5113061;28;20176;-64
2021/08/01 05:06:38;;;;;;;2.08;1.40;;;21.30;62.90;;;;;;5112155;28;20169;-64
2021/08/01 05:09:04;;;;;;;1.70;1.60;;;21.30;62.90;;;;;;5113382;28;20186;-64
2021/08/01 05:11:29;;;;;;;1.60;1.50;;;21.30;62.90;;;;;;5112820;28;20169;-64
2021/08/01 05:13:55;;;;;;;1.95;1.60;;;21.30;62.90;;;;;;5112131;28;20195;-64
2021/08/01 05:16:20;;;;;;;1.67;1.58;;;21.30;62.90;;;;;;5112544;28;20169;-63
2021/08/01 05:18:46;;;;;;;1.80;1.70;;;21.50;63.00;;;;;;5112460;28;20216;-63
2021/08/01 05:21:11;;;;;;;2.00;1.90;;;21.30;62.80;;;;;;5111943;28;20630;-64
2021/08/01 05:23:37;;;;;;;1.80;1.70;;;21.30;62.90;;;;;;5112453;28;20173;-64
2021/08/01 05:26:03;;;;;;;2.13;1.67;;;21.30;62.90;;;;;;5112796;28;20188;-65
2021/08/01 05:28:28;;;;;;;1.60;1.50;;;21.30;62.80;;;;;;5111681;28;20175;-64
2021/08/01 05:30:54;;;;;;;1.50;1.40;;;21.30;62.90;;;;;;5112597;28;20177;-65
2021/08/01 05:33:19;;;;;;;1.50;1.40;;;21.30;62.80;;;;;;5112253;28;20533;-65
2021/08/01 05:35:45;;;;;;;1.63;1.45;;;21.30;62.90;;;;;;5111591;28;20649;-65
2021/08/01 05:38:10;;;;;;;1.75;1.63;;;21.30;62.80;;;;;;5112514;28;20188;-64
2021/08/01 05:40:36;;;;;;;1.70;1.60;;;21.30;62.90;;;;;;5111629;28;20223;-64
2021/08/01 05:43:01;;;;;;;1.95;1.85;;;21.30;62.80;;;;;;5112591;28;20530;-64
2021/08/01 05:45:27;;;;;;;2.03;1.88;;;21.30;62.90;;;;;;5112278;28;20515;-64
2021/08/01 05:47:53;;;;;;;1.95;1.85;;;21.30;62.80;;;;;;5111621;28;20946;-64
2021/08/01 05:50:19;;;;;;;1.70;1.60;;;21.30;62.80;;;;;;5112396;28;20173;-64
2021/08/01 05:52:44;;;;;;;1.75;1.63;;;21.30;62.80;;;;;;5112524;28;20176;-65
2021/08/01 05:55:10;;;;;;;1.80;1.70;;;21.30;62.80;;;;;;5111502;28;20234;-64
2021/08/01 05:57:36;;;;;;;1.90;1.80;;;21.30;62.80;;;;;;5111991;28;20602;-64
2021/08/01 06:00:03;;;;;;;2.58;1.88;;;21.30;62.80;;;;;;5112193;28;20662;-64
2021/08/01 06:02:29;;;;;;;1.83;1.70;;;21.30;62.80;;;;;;5111399;28;20205;-65
2021/08/01 06:04:54;;;;;;;2.63;1.98;;;21.30;62.80;;;;;;5112137;28;20528;-65
2021/08/01 06:07:20;;;;;;;1.85;1.75;;;21.30;62.70;;;;;;5112027;28;20183;-65
2021/08/01 06:09:47;;;;;;;1.98;1.88;;;21.30;62.80;;;;;;5111336;28;20576;-65
2021/08/01 06:12:13;;;;;;;1.92;1.63;;;21.40;62.90;;;;;;5112178;28;20252;-64
2021/08/01 06:14:38;;;;;;;2.78;2.10;;;21.30;62.70;;;;;;5111711;28;20223;-63
2021/08/01 06:17:04;;;;;;;2.10;2.00;;;21.40;62.80;;;;;;5111147;28;20169;-64
2021/08/01 06:19:30;;;;;;;2.85;2.10;;;21.40;62.80;;;;;;5111213;28;20722;-64
2021/08/01 06:21:56;;;;;;;2.30;2.03;;;21.40;62.80;;;;;;5111908;28;20200;-64
2021/08/01 06:24:22;;;;;;;2.00;1.90;;;21.40;62.80;;;;;;5110851;28;20175;-64
2021/08/01 06:26:47;;;;;;;1.98;1.80;;;21.40;62.80;;;;;;5111993;28;20209;-66
2021/08/01 06:29:13;;;;;;;2.10;2.00;;;21.40;62.80;;;;;;5111754;28;20265;-65
2021/08/01 06:31:38;;;;;;;2.47;2.28;;;21.40;62.70;;;;;;5110698;28;20169;-65
2021/08/01 06:34:04;;;;;;;2.00;1.90;;;21.40;62.80;;;;;;5111882;28;20261;-65
2021/08/01 06:36:29;;;;;;;5.65;2.30;;;21.40;62.80;;;;;;5111434;28;20256;-64
2021/08/01 06:38:55;;;;;;;1.88;1.77;;;21.40;62.80;;;;;;5110877;28;20184;-63
2021/08/01 06:41:20;;;;;;;2.50;2.30;;;21.40;63.70;;;;;;5111355;28;20495;-64
2021/08/01 06:43:46;;;;;;;2.40;2.20;;;21.40;62.80;;;;;;5111654;28;20193;-65
2021/08/01 06:46:11;;;;;;;2.30;2.10;;;21.30;62.80;;;;;;5110912;28;20260;-66
2021/08/01 06:48:40;;;;;;;2.60;2.40;;;21.30;62.80;;;;;;5111551;28;20253;-65
2021/08/01 06:51:05;;;;;;;3.05;2.78;;;21.40;62.90;;;;;;5110983;28;20165;-65
2021/08/01 06:53:31;;;;;;;2.72;2.17;;;21.40;62.90;;;;;;5111357;28;20511;-66
2021/08/01 06:55:56;;;;;;;2.30;2.20;;;21.40;63.00;;;;;;5111881;28;20204;-66
2021/08/01 06:58:22;;;;;;;2.38;2.22;;;21.30;62.90;;;;;;5110635;28;20166;-65
2021/08/01 07:00:48;;;;;;;2.40;2.20;;;21.30;62.80;;;;;;5111465;28;20344;-65
2021/08/01 07:03:14;;;;;;;2.40;2.20;;;21.40;63.00;;;;;;5111757;28;20245;-66
2021/08/01 07:05:39;;;;;;;2.50;2.30;;;21.40;62.90;;;;;;5110736;28;20196;-67
2021/08/01 07:08:05;;;;;;;2.47;2.30;;;21.30;62.80;;;;;;5111434;28;20260;-68
2021/08/01 07:10:30;;;;;;;2.50;2.33;;;21.30;62.90;;;;;;5111236;28;20188;-65
2021/08/01 07:12:58;;;;;;;2.85;2.55;;;21.30;62.80;;;;;;5110603;28;20169;-65
2021/08/01 07:15:24;;;;;;;2.92;2.72;;;21.30;62.90;;;;;;5076134;28;20177;-64
2021/08/01 07:17:54;;;;;;;3.00;2.80;;;21.30;63.10;;;;;;5111386;28;20298;-64
2021/08/01 07:20:20;;;;;;;3.22;2.90;;;21.30;63.10;;;;;;5110496;28;20221;-64
2021/08/01 07:22:45;;;;;;;3.30;3.00;;;21.30;63.10;;;;;;5113481;28;20515;-64
2021/08/01 07:25:11;;;;;;;3.03;2.75;;;21.30;63.10;;;;;;5115143;28;20634;-64
2021/08/01 07:27:36;;;;;;;3.22;2.92;;;21.30;63.20;;;;;;5114118;28;20174;-65
2021/08/01 07:30:03;;;;;;;2.90;2.70;;;21.30;63.20;;;;;;5115010;28;20185;-64
2021/08/01 07:32:29;;;;;;;11.73;4.00;;;21.30;63.10;;;;;;5114499;28;20712;-65
2021/08/01 07:34:54;;;;;;;5.82;3.78;;;21.30;63.10;;;;;;5114292;28;20212;-64
2021/08/01 07:37:20;;;;;;;4.00;3.60;;;21.30;63.10;;;;;;5114467;28;20638;-64
2021/08/01 07:39:45;;;;;;;5.35;4.35;;;21.30;63.00;;;;;;5114516;28;20208;-63
2021/08/01 07:42:11;;;;;;;5.10;3.40;;;21.30;63.00;;;;;;5113972;28;20173;-66
2021/08/01 07:44:57;;;;;;;7.40;4.10;;;21.30;63.10;;;;;;5114479;28;20184;-64
2021/08/01 07:47:23;;;;;;;5.75;4.65;;;21.30;63.10;;;;;;5113707;28;20178;-64
2021/08/01 07:49:49;;;;;;;5.47;4.90;;;21.30;63.10;;;;;;5114729;28;20221;-63
2021/08/01 07:52:18;;;;;;;5.68;5.13;;;21.30;63.10;;;;;;5114652;28;20633;-64
2021/08/01 07:54:43;;;;;;;7.18;5.22;;;21.30;63.10;;;;;;5113753;28;20177;-63
2021/08/01 07:57:28;;;;;;;6.88;5.50;;;21.30;62.90;;;;;;5114507;28;20181;-65
2021/08/01 07:59:55;;;;;;;6.40;5.68;;;21.40;63.00;;;;;;5114397;28;20682;-64
2021/08/01 08:02:21;;;;;;;6.68;5.32;;;21.30;62.80;;;;;;5113582;28;20176;-65
2021/08/01 08:04:47;;;;;;;9.02;5.88;;;21.30;62.90;;;;;;5114247;28;20195;-63
2021/08/01 08:07:12;;;;;;;7.60;5.85;;;21.40;63.00;;;;;;5114209;28;20181;-64
2021/08/01 08:09:40;;;;;;;8.93;6.20;;;21.40;63.00;;;;;;5113283;28;20631;-65
2021/08/01 08:12:06;;;;;;;6.07;5.43;;;21.40;63.00;;;;;;5114318;28;20173;-64
2021/08/01 08:14:32;;;;;;;10.50;6.53;;;21.40;63.10;;;;;;5113994;28;20196;-63
2021/08/01 08:16:58;;;;;;;7.80;6.55;;;21.40;63.10;;;;;;5113380;28;20169;-64
2021/08/01 08:19:23;;;;;;;8.85;6.20;;;21.40;63.10;;;;;;5095273;28;20239;-63
2021/08/01 08:21:49;;;;;;;8.80;6.70;;;21.40;63.10;;;;;;5114078;28;20475;-64
2021/08/01 08:24:15;;;;;;;8.73;5.75;;;21.40;63.20;;;;;;5113504;28;20175;-64
2021/08/01 08:26:40;;;;;;;8.27;7.05;;;21.40;63.30;;;;;;5113909;28;20173;-64
2021/08/01 08:29:06;;;;;;;7.90;7.00;;;21.30;63.10;;;;;;5113853;28;20187;-64
2021/08/01 08:31:34;;;;;;;9.05;6.68;;;21.30;63.30;;;;;;5118391;27;20252;-65
2021/08/01 08:33:59;;;;;;;8.32;6.88;;;21.40;63.40;;;;;;5115583;27;20650;-64
2021/08/01 08:36:25;;;;;;;9.57;7.30;;;21.30;63.40;;;;;;5132226;27;20256;-65
2021/08/01 08:38:50;;;;;;;10.48;7.60;;;21.40;63.40;;;;;;5130427;27;20165;-63
2021/08/01 08:41:16;;;;;;;10.20;7.70;;;21.30;63.40;;;;;;5113469;28;20630;-64
2021/08/01 08:43:45;;;;;;;8.55;7.38;;;21.30;63.50;;;;;;5113125;28;20265;-64
2021/08/01 08:46:13;;;;;;;11.80;8.18;;;21.30;63.50;;;;;;5113668;28;20174;-64
2021/08/01 08:48:39;;;;;;;9.35;7.30;;;21.30;63.40;;;;;;5127966;27;20177;-64
2021/08/01 08:51:11;;;;;;;9.27;7.90;;;21.30;63.40;;;;;;5133126;27;20241;-64
2021/08/01 08:53:48;;;;;;;12.82;8.35;;;21.30;63.50;;;;;;5133827;27;20161;-64
2021/08/01 08:56:14;;;;;;;11.90;8.82;;;21.30;63.40;;;;;;5134458;27;20172;-64
2021/08/01 08:58:40;;;;;;;10.02;8.02;;;21.30;63.50;;;;;;5132056;27;20191;-65
2021/08/01 09:01:06;;;;;;;9.65;7.88;;;21.30;63.50;;;;;;5098873;27;20208;-64
2021/08/01 09:03:31;;;;;;;9.05;8.15;;;21.30;63.50;;;;;;5133449;27;20548;-65
2021/08/01 09:05:59;;;;;;;9.93;7.57;;;21.30;63.50;;;;;;5116014;27;20231;-65
2021/08/01 09:08:25;;;;;;;10.88;8.60;;;21.30;63.50;;;;;;5112931;28;20185;-65
2021/08/01 09:10:52;;;;;;;9.38;8.35;;;21.30;63.50;;;;;;5113220;28;20177;-65
2021/08/01 09:13:42;;;;;;;9.48;8.10;;;21.30;63.50;;;;;;5112060;28;20188;-65
2021/08/01 09:16:08;;;;;;;10.90;8.52;;;21.30;63.50;;;;;;5113249;28;20216;-64
2021/08/01 09:18:33;;;;;;;10.95;8.90;;;21.30;63.60;;;;;;5112254;28;20728;-63
2021/08/01 09:20:59;;;;;;;10.50;8.35;;;21.30;63.60;;;;;;5112445;28;20709;-64
2021/08/01 09:23:24;;;;;;;12.68;9.90;;;21.30;63.60;;;;;;5112751;28;20169;-65
2021/08/01 09:25:57;;;;;;;10.48;9.38;;;21.30;63.60;;;;;;5111972;28;20177;-65
2021/08/01 09:28:24;;;;;;;12.68;9.52;;;21.30;63.60;;;;;;5112269;28;20181;-65
2021/08/01 09:31:04;;;;;;;11.32;8.70;;;21.30;63.60;;;;;;5112635;28;20180;-67
2021/08/01 09:33:44;;;;;;;10.80;9.00;;;21.30;63.60;;;;;;5111480;28;20180;-65
2021/08/01 09:36:13;;;;;;;10.55;8.77;;;21.30;63.70;;;;;;5112483;28;20173;-64
2021/08/01 09:38:57;;;;;;;10.85;9.10;;;21.40;63.50;;;;;;5116636;27;20551;-65
2021/08/01 09:41:35;;;;;;;10.23;9.13;;;21.40;63.50;;;;;;5131949;27;20184;-65
2021/08/01 09:44:02;;;;;;;9.65;8.65;;;21.40;63.40;;;;;;5132831;27;20319;-65
2021/08/01 09:46:41;;;;;;;10.77;9.30;;;21.40;63.50;;;;;;5131987;27;20673;-65
2021/08/01 09:49:17;;;;;;;11.05;9.52;;;21.40;63.40;;;;;;5132413;27;20255;-64
2021/08/01 09:51:46;;;;;;;15.43;9.95;;;21.40;63.30;;;;;;5132925;27;20178;-65
2021/08/01 09:54:12;;;;;;;11.20;10.07;;;21.40;63.30;;;;;;5132032;27;20478;-64
2021/08/01 09:56:38;;;;;;;12.93;9.80;;;21.40;63.30;;;;;;5132636;27;20236;-65
2021/08/01 09:59:19;;;;;;;11.00;9.73;;;21.50;63.50;;;;;;5132868;27;20177;-65
2021/08/01 10:01:49;;;;;;;12.32;9.93;;;21.50;63.20;;;;;;5131965;27;20181;-66
2021/08/01 10:04:45;;;;;;;11.13;9.93;;;21.60;62.90;;;;;;5132917;27;20297;-65
2021/08/01 10:07:15;;;;;;;11.38;9.75;;;21.70;63.10;;;;;;5097408;27;20607;-65
2021/08/01 10:09:42;;;;;;;14.00;10.70;;;21.70;63.10;;;;;;5132057;27;20232;-65
2021/08/01 10:12:08;;;;;;;11.52;9.75;;;21.70;63.10;;;;;;5132710;27;20168;-65
2021/08/01 10:14:34;;;;;;;13.88;11.20;;;21.70;63.20;;;;;;5132126;27;20601;-65
2021/08/01 10:16:59;;;;;;;13.27;10.73;;;21.80;63.10;;;;;;5131632;27;20177;-64
2021/08/01 10:19:25;;;;;;;13.45;10.90;;;21.80;63.00;;;;;;5131754;27;20255;-65
2021/08/01 10:21:53;;;;;;;12.65;10.40;;;21.90;63.00;;;;;;5131229;27;20236;-64
2021/08/01 10:24:24;;;;;;;14.05;10.90;;;21.90;62.80;;;;;;5132148;27;20173;-67
2021/08/01 10:26:52;;;;;;;13.98;11.20;;;22.00;62.80;;;;;;5114469;28;20176;-66
2021/08/01 10:29:49;;;;;;;13.70;11.60;;;22.00;62.60;;;;;;5112978;28;20293;-68
2021/08/01 10:32:17;;;;;;;12.00;10.38;;;22.10;62.60;;;;;;5104627;28;20184;-66
2021/08/01 10:34:46;;;;;;;12.25;10.80;;;22.00;62.70;;;;;;5113702;28;20172;-68
2021/08/01 10:37:18;;;;;;;12.40;10.77;;;22.00;62.80;;;;;;5113305;28;20180;-64
2021/08/01 10:39:44;;;;;;;13.23;11.23;;;22.00;62.80;;;;;;5118230;28;20593;-66
2021/08/01 10:42:10;;;;;;;15.13;11.77;;;22.10;62.70;;;;;;5111808;28;20181;-66
2021/08/01 10:44:36;;;;;;;14.32;11.35;;;22.10;62.60;;;;;;5092611;28;20188;-65
2021/08/01 10:47:05;;;;;;;12.13;10.40;;;22.10;62.60;;;;;;5111494;28;20658;-65
2021/08/01 10:49:30;;;;;;;15.73;11.13;;;22.20;62.70;;;;;;5092993;28;20264;-66
2021/08/01 10:51:58;;;;;;;12.57;10.55;;;22.20;62.60;;;;;;5075578;28;20173;-67
2021/08/01 10:54:26;;;;;;;13.20;11.73;;;22.10;62.60;;;;;;5077074;28;20169;-65
2021/08/01 10:57:14;;;;;;;12.95;11.65;;;22.10;62.80;;;;;;5113511;28;20176;-66
2021/08/01 10:59:45;;;;;;;13.75;10.98;;;22.00;63.10;;;;;;5114997;28;20232;-67
2021/08/01 11:02:15;;;;;;;12.65;11.35;;;22.00;63.20;;;;;;5115733;28;20165;-65
2021/08/01 11:04:43;;;;;;;15.32;11.25;;;21.90;63.30;;;;;;5114866;28;20181;-67
2021/08/01 11:07:09;;;;;;;13.40;10.98;;;21.90;63.60;;;;;;5115542;28;20166;-66
2021/08/01 11:09:34;;;;;;;14.98;10.93;;;21.90;63.60;;;;;;5079802;28;20184;-66
2021/08/01 11:12:36;;;;;;;13.63;10.43;;;21.80;63.60;;;;;;5114205;28;20485;-69
2021/08/01 11:15:06;;;;;;;12.77;10.20;;;21.80;63.90;;;;;;5115211;28;20179;-66
2021/08/01 11:17:40;;;;;;;12.02;10.57;;;21.80;63.90;;;;;;5114903;28;20637;-66
2021/08/01 11:20:29;;;;;;;15.80;11.32;;;21.70;63.90;;;;;;5114184;28;20255;-66
2021/08/01 11:22:55;;;;;;;12.43;10.60;;;21.70;63.90;;;;;;5114823;28;20173;-65
2021/08/01 11:25:31;;;;;;;12.07;10.73;;;21.70;64.00;;;;;;5113652;28;20587;-66
2021/08/01 11:28:12;;;;;;;12.52;10.32;;;21.70;64.10;;;;;;5115115;28;20180;-66
2021/08/01 11:30:52;;;;;;;12.27;10.98;;;21.80;64.20;;;;;;5114733;28;20173;-66
2021/08/01 11:33:49;;;;;;;15.15;11.90;;;21.70;64.00;;;;;;5113751;28;20192;-64
2021/08/01 11:36:17;;;;;;;11.73;10.23;;;21.70;64.20;;;;;;5114927;28;20184;-69
2021/08/01 11:38:50;;;;;;;13.75;11.18;;;21.70;64.20;;;;;;5119789;27;20260;-69
2021/08/01 11:41:27;;;;;;;16.40;11.35;;;21.70;64.10;;;;;;5134226;27;20514;-69
2021/08/01 11:43:57;;;;;;;11.68;10.15;;;21.80;64.30;;;;;;5135227;27;20179;-70
2021/08/01 11:46:23;;;;;;;14.13;10.75;;;21.80;64.30;;;;;;5134042;27;20176;-69
2021/08/01 11:48:55;;;;;;;15.73;11.00;;;21.70;64.30;;;;;;5116645;27;20698;-69
2021/08/01 11:51:20;;;;;;;13.38;10.65;;;21.80;64.40;;;;;;5117378;27;20180;-69
2021/08/01 11:53:47;;;;;;;12.30;10.23;;;21.80;64.50;;;;;;5098915;27;20165;-67
2021/08/01 11:56:13;;;;;;;13.15;10.40;;;21.70;64.40;;;;;;5099607;27;20571;-70
2021/08/01 11:58:38;;;;;;;14.15;10.18;;;21.70;64.40;;;;;;5134465;27;20181;-70
2021/08/01 12:01:06;;;;;;;13.82;10.23;;;21.70;64.50;;;;;;5134190;27;20235;-69
2021/08/01 12:03:32;;;;;;;12.48;10.48;;;21.70;64.50;;;;;;5116590;27;20168;-70
2021/08/01 12:05:57;;;;;;;17.67;10.75;;;21.70;64.50;;;;;;5099402;27;20626;-71
2021/08/01 12:08:35;;;;;;;14.85;10.95;;;21.70;64.50;;;;;;5114651;27;20184;-69
2021/08/01 12:11:12;;;;;;;11.18;9.90;;;21.70;64.60;;;;;;5134513;27;20192;-69
2021/08/01 12:13:38;;;;;;;12.88;9.35;;;21.70;64.50;;;;;;5134550;27;20176;-69
2021/08/01 12:16:17;;;;;;;14.25;9.77;;;21.70;64.50;;;;;;5133748;27;20263;-71
2021/08/01 12:18:43;;;;;;;12.32;9.35;;;21.70;64.60;;;;;;5134437;27;20231;-69
2021/08/01 12:21:31;;;;;;;12.88;9.85;;;21.70;64.50;;;;;;5134330;27;20575;-68
2021/08/01 12:23:56;;;;;;;14.75;10.50;;;21.70;64.70;;;;;;5134495;27;20184;-69
2021/08/01 12:26:39;;;;;;;11.40;9.82;;;21.70;64.80;;;;;;5115873;27;20169;-68
2021/08/01 12:29:08;;;;;;;13.55;9.82;;;21.70;64.80;;;;;;5133740;27;20251;-69
2021/08/01 12:31:33;;;;;;;12.02;9.93;;;21.70;64.80;;;;;;5133963;27;20188;-70
2021/08/01 12:33:59;;;;;;;11.85;9.40;;;21.70;64.90;;;;;;5134218;27;20184;-69
2021/08/01 12:36:28;;;;;;;10.68;9.25;;;21.70;65.00;;;;;;5114890;27;20168;-70
2021/08/01 12:38:53;;;;;;;16.38;9.55;;;21.60;64.90;;;;;;5127573;27;20318;-68
2021/08/01 12:41:20;;;;;;;12.63;9.35;;;21.70;64.90;;;;;;5113207;28;20291;-69
2021/08/01 12:43:46;;;;;;;12.82;9.40;;;21.70;64.90;;;;;;5112773;28;20173;-69
2021/08/01 12:46:16;;;;;;;9.77;8.63;;;21.70;64.90;;;;;;5113385;28;20264;-68
2021/08/01 12:48:41;;;;;;;11.88;9.80;;;21.70;64.90;;;;;;5113253;28;20169;-71